Time;durP1;ratioP1;P1;durP2;ratioP2;P2;SDS_P1;SDS_P2;PMS_P1;PMS_P2;Temp;Humidity;BMP_temperature;BMP_pressure;BME280_temperature;BME280_humidity;BME280_pressure;Samples;Min_cycle;Max_cycle;Signal;HPM_P1;HPM_P2
2022/10/25 00:00:41;;;;;;;0.83;0.83;;;20.30;75.60;;;;;;4974237;28;43496;-70
2022/10/25 00:03:09;;;;;;;1.00;1.00;;;20.30;75.70;;;;;;4969932;28;43402;-70
2022/10/25 00:05:37;;;;;;;0.90;0.90;;;20.30;75.60;;;;;;4971435;28;43569;-71
2022/10/25 00:08:05;;;;;;;0.90;0.90;;;20.30;75.50;;;;;;4983570;28;43487;-71
2022/10/25 00:10:33;;;;;;;1.03;1.03;;;20.30;75.60;;;;;;4977738;28;43421;-70
2022/10/25 00:13:01;;;;;;;0.90;0.90;;;20.20;75.60;;;;;;4975675;28;44012;-70
2022/10/25 00:15:31;;;;;;;0.90;0.90;;;20.30;76.20;;;;;;4982192;28;44060;-71
2022/10/25 00:17:58;;;;;;;0.90;0.90;;;20.30;75.90;;;;;;4977112;28;44270;-71
2022/10/25 00:20:26;;;;;;;1.00;1.00;;;20.40;75.40;;;;;;4973741;28;43984;-71
2022/10/25 00:22:54;;;;;;;0.80;0.80;;;20.60;74.90;;;;;;4976385;28;43525;-71
2022/10/25 00:25:23;;;;;;;1.00;1.00;;;20.70;74.30;;;;;;4978218;28;43659;-72
2022/10/25 00:27:51;;;;;;;1.00;1.00;;;20.80;74.20;;;;;;4978089;28;43781;-72
2022/10/25 00:30:19;;;;;;;1.10;1.10;;;20.70;74.10;;;;;;4969436;28;43524;-71
2022/10/25 00:32:51;;;;;;;0.67;0.67;;;20.60;74.30;;;;;;4990540;28;43521;-70
2022/10/25 00:35:19;;;;;;;0.90;0.90;;;20.60;74.60;;;;;;4980865;28;43923;-71
2022/10/25 00:37:47;;;;;;;0.90;0.90;;;20.50;75.10;;;;;;4976769;28;43497;-72
2022/10/25 00:40:15;;;;;;;0.77;0.77;;;20.40;75.00;;;;;;4982155;28;44080;-72
2022/10/25 00:42:43;;;;;;;0.80;0.80;;;20.40;75.00;;;;;;4992162;28;43572;-70
2022/10/25 00:45:19;;;;;;;0.90;0.90;;;20.40;75.20;;;;;;4989799;28;43950;-70
2022/10/25 00:47:51;;;;;;;0.80;0.80;;;20.30;75.30;;;;;;4985362;28;43955;-73
2022/10/25 00:50:23;;;;;;;1.10;1.10;;;20.30;75.70;;;;;;4975476;28;43375;-72
2022/10/25 00:52:53;;;;;;;1.10;1.10;;;20.40;75.60;;;;;;4978838;28;43451;-71
2022/10/25 00:55:21;;;;;;;0.90;0.90;;;20.50;75.10;;;;;;4970642;28;43612;-71
2022/10/25 00:57:52;;;;;;;0.80;0.80;;;20.60;74.80;;;;;;4981419;28;43563;-71
2022/10/25 01:00:20;;;;;;;1.07;1.07;;;20.60;74.70;;;;;;4969360;28;43511;-71
2022/10/25 01:02:49;;;;;;;1.10;1.10;;;20.50;74.80;;;;;;4975689;28;43488;-71
2022/10/25 01:05:17;;;;;;;0.90;0.90;;;20.50;75.00;;;;;;4985891;28;43700;-70
2022/10/25 01:07:45;;;;;;;0.77;0.77;;;20.50;74.90;;;;;;4981106;28;43551;-70
2022/10/25 01:10:13;;;;;;;0.70;0.70;;;20.50;74.90;;;;;;4980753;28;43429;-71
2022/10/25 01:12:41;;;;;;;0.70;0.70;;;20.40;75.00;;;;;;4987821;28;43384;-70
2022/10/25 01:15:09;;;;;;;0.77;0.77;;;20.40;75.20;;;;;;4987942;28;45382;-71
2022/10/25 01:17:42;;;;;;;1.10;1.10;;;20.30;75.50;;;;;;4980351;28;43491;-71
2022/10/25 01:20:40;;;;;;;0.90;0.90;;;20.30;75.50;;;;;;4982464;28;43465;-72
2022/10/25 01:23:17;;;;;;;0.80;0.80;;;20.30;75.50;;;;;;4975290;28;43451;-71
2022/10/25 01:26:20;;;;;;;1.17;0.80;;;20.30;75.60;;;;;;4984492;28;43613;-72
2022/10/25 01:28:55;;;;;;;0.90;0.90;;;20.20;75.80;;;;;;4955811;28;43520;-70
2022/10/25 01:31:27;;;;;;;0.73;0.73;;;20.20;75.90;;;;;;4981857;28;43989;-72
2022/10/25 01:33:56;;;;;;;0.80;0.80;;;20.30;75.90;;;;;;4977949;28;43804;-70
2022/10/25 01:36:29;;;;;;;0.80;0.80;;;20.20;75.70;;;;;;4973406;28;45540;-70
2022/10/25 01:39:00;;;;;;;1.00;1.00;;;20.20;75.70;;;;;;4978330;28;43546;-70
2022/10/25 01:41:31;;;;;;;0.90;0.90;;;20.20;75.90;;;;;;4969296;28;43502;-71
2022/10/25 01:44:06;;;;;;;0.83;0.83;;;20.20;76.20;;;;;;4975985;28;43464;-71
2022/10/25 01:46:39;;;;;;;0.90;0.90;;;20.20;76.00;;;;;;4980831;28;45936;-71
2022/10/25 01:49:09;;;;;;;0.80;0.80;;;20.40;75.50;;;;;;4973208;28;43416;-71
2022/10/25 01:51:37;;;;;;;0.90;0.90;;;20.60;75.00;;;;;;4977179;28;43426;-72
2022/10/25 01:54:19;;;;;;;1.10;1.10;;;20.70;74.40;;;;;;4979700;28;43469;-72
2022/10/25 01:56:51;;;;;;;0.87;0.87;;;20.70;74.20;;;;;;4979311;28;46029;-72
2022/10/25 01:59:26;;;;;;;1.00;1.00;;;20.60;74.20;;;;;;4975061;28;44406;-72
2022/10/25 02:02:01;;;;;;;0.80;0.80;;;20.60;74.40;;;;;;4977369;28;43473;-70
2022/10/25 02:04:36;;;;;;;1.00;1.00;;;20.50;74.80;;;;;;4986403;28;43518;-70
2022/10/25 02:07:06;;;;;;;0.87;0.87;;;20.40;75.10;;;;;;4982227;28;46004;-72
2022/10/25 02:09:37;;;;;;;0.80;0.80;;;20.40;75.10;;;;;;4986091;28;43528;-70
2022/10/25 02:12:06;;;;;;;0.80;0.80;;;20.40;75.10;;;;;;4982910;28;43482;-71
2022/10/25 02:14:35;;;;;;;0.80;0.80;;;20.30;75.20;;;;;;4979870;28;43528;-71
2022/10/25 02:17:07;;;;;;;0.70;0.70;;;20.30;75.40;;;;;;4973671;28;43858;-71
2022/10/25 02:19:37;;;;;;;0.83;0.83;;;20.20;75.70;;;;;;4968139;28;43746;-71
2022/10/25 02:22:05;;;;;;;0.90;0.90;;;20.30;75.80;;;;;;4973556;28;43587;-71
2022/10/25 02:24:33;;;;;;;0.73;0.73;;;20.20;75.60;;;;;;4987759;28;43762;-72
2022/10/25 02:27:01;;;;;;;0.90;0.90;;;20.20;75.50;;;;;;4971379;28;45412;-70
2022/10/25 02:29:30;;;;;;;0.90;0.90;;;20.20;75.70;;;;;;4984454;28;43414;-69
2022/10/25 02:31:58;;;;;;;0.70;0.70;;;20.20;76.00;;;;;;4973848;28;43487;-72
2022/10/25 02:34:28;;;;;;;0.83;0.83;;;20.20;76.00;;;;;;4988277;28;44539;-71
2022/10/25 02:36:55;;;;;;;0.70;0.70;;;20.30;75.60;;;;;;4974956;28;43834;-72
2022/10/25 02:39:24;;;;;;;0.90;0.90;;;20.50;75.10;;;;;;4989979;28;45007;-70
2022/10/25 02:41:57;;;;;;;0.80;0.80;;;20.60;74.50;;;;;;4975717;28;43401;-71
2022/10/25 02:44:25;;;;;;;0.80;0.80;;;20.70;74.30;;;;;;4985002;28;43900;-70
2022/10/25 02:46:53;;;;;;;0.90;0.90;;;20.60;74.20;;;;;;4978819;28;45618;-72
2022/10/25 02:49:21;;;;;;;0.80;0.80;;;20.60;74.40;;;;;;4980832;28;43471;-72
2022/10/25 02:51:50;;;;;;;0.83;0.83;;;20.50;74.60;;;;;;4973113;28;43494;-70
2022/10/25 02:54:24;;;;;;;0.80;0.80;;;20.40;75.10;;;;;;4971509;28;43521;-71
2022/10/25 02:56:52;;;;;;;0.80;0.80;;;20.40;75.20;;;;;;4988751;28;43589;-71
2022/10/25 02:59:21;;;;;;;0.70;0.70;;;20.40;75.20;;;;;;4978570;28;43444;-70
2022/10/25 03:01:49;;;;;;;0.90;0.90;;;20.30;75.20;;;;;;4990658;28;43353;-71
2022/10/25 03:04:17;;;;;;;0.70;0.70;;;20.30;75.30;;;;;;4989719;28;43464;-70
2022/10/25 03:06:44;;;;;;;0.80;0.80;;;20.20;75.70;;;;;;4992727;28;43850;-72
2022/10/25 03:09:14;;;;;;;0.87;0.87;;;20.20;75.80;;;;;;4991639;28;44363;-70
2022/10/25 03:11:42;;;;;;;0.90;0.90;;;20.30;75.50;;;;;;4981654;28;43413;-70
2022/10/25 03:14:09;;;;;;;1.03;1.03;;;20.40;75.00;;;;;;4990573;28;43456;-72
2022/10/25 03:16:37;;;;;;;0.90;0.90;;;20.50;74.80;;;;;;4989263;28;43739;-72
2022/10/25 03:19:05;;;;;;;0.80;0.80;;;20.50;74.80;;;;;;4978656;28;44295;-71
2022/10/25 03:21:33;;;;;;;0.90;0.90;;;20.40;75.00;;;;;;4982845;28;43479;-72
2022/10/25 03:24:07;;;;;;;0.90;0.90;;;20.40;75.00;;;;;;4975826;28;43519;-71
2022/10/25 03:26:36;;;;;;;0.80;0.80;;;20.40;75.00;;;;;;4983140;28;43865;-71
2022/10/25 03:29:04;;;;;;;0.93;0.93;;;20.40;75.00;;;;;;4979689;28;44111;-72
2022/10/25 03:31:32;;;;;;;2.23;1.70;;;20.30;75.10;;;;;;4975884;28;43445;-73
2022/10/25 03:34:00;;;;;;;2.20;1.80;;;20.30;75.60;;;;;;4990928;28;43473;-72
2022/10/25 03:36:27;;;;;;;3.47;1.73;;;20.30;75.70;;;;;;4986075;28;43983;-72
2022/10/25 03:38:55;;;;;;;3.23;1.83;;;20.20;75.40;;;;;;4976516;28;43516;-71
2022/10/25 03:41:23;;;;;;;2.20;2.00;;;20.20;75.40;;;;;;4973983;28;43566;-70
2022/10/25 03:43:53;;;;;;;6.00;2.47;;;20.20;75.60;;;;;;4982693;28;43503;-72
2022/10/25 03:46:20;;;;;;;4.53;2.77;;;20.20;76.00;;;;;;4984536;28;43633;-72
2022/10/25 03:48:48;;;;;;;6.40;2.77;;;20.20;75.90;;;;;;4985303;28;44925;-72
2022/10/25 03:51:16;;;;;;;3.53;2.70;;;20.20;75.80;;;;;;4972341;28;43418;-71
2022/10/25 03:53:44;;;;;;;3.43;2.43;;;20.20;75.70;;;;;;4989061;28;43812;-72
2022/10/25 03:56:12;;;;;;;5.67;3.10;;;20.10;75.70;;;;;;4986678;28;43854;-72
2022/10/25 03:58:40;;;;;;;6.00;3.00;;;20.10;76.00;;;;;;4984804;28;43527;-70
2022/10/25 04:01:09;;;;;;;5.67;3.20;;;20.20;76.10;;;;;;4980767;28;43397;-72
2022/10/25 04:03:38;;;;;;;5.37;3.20;;;20.30;75.80;;;;;;4983303;28;44727;-71
2022/10/25 04:06:06;;;;;;;4.30;2.80;;;20.40;75.20;;;;;;4975700;28;43922;-72
2022/10/25 04:08:34;;;;;;;3.47;3.03;;;20.60;74.60;;;;;;4981221;28;44006;-71
2022/10/25 04:11:02;;;;;;;5.93;2.90;;;20.60;74.20;;;;;;4970751;28;43437;-70
2022/10/25 04:13:30;;;;;;;2.97;2.50;;;20.60;74.10;;;;;;4973116;28;43421;-72
2022/10/25 04:15:57;;;;;;;4.43;2.90;;;20.60;74.30;;;;;;4983443;28;43910;-73
2022/10/25 04:18:27;;;;;;;3.10;2.50;;;20.50;74.50;;;;;;4976533;28;43461;-72
2022/10/25 04:20:55;;;;;;;4.17;2.97;;;20.40;74.80;;;;;;4975704;28;43444;-70
2022/10/25 04:23:22;;;;;;;3.83;2.93;;;20.40;75.20;;;;;;4982677;28;43412;-72
2022/10/25 04:25:55;;;;;;;3.43;2.80;;;20.40;75.20;;;;;;4989574;28;43603;-71
2022/10/25 04:28:23;;;;;;;3.00;2.40;;;20.30;75.20;;;;;;4982649;28;44686;-72
2022/10/25 04:30:51;;;;;;;4.00;2.90;;;20.30;75.30;;;;;;4987092;28;43436;-71
2022/10/25 04:33:18;;;;;;;4.77;3.00;;;20.20;75.50;;;;;;4981426;28;43450;-71
2022/10/25 04:35:55;;;;;;;2.87;2.63;;;20.20;75.80;;;;;;4975661;28;45095;-71
2022/10/25 04:38:22;;;;;;;2.53;2.33;;;20.20;75.70;;;;;;4977969;28;43842;-72
2022/10/25 04:40:54;;;;;;;3.10;2.43;;;20.20;75.50;;;;;;4980232;28;44029;-72
2022/10/25 04:43:22;;;;;;;2.33;2.13;;;20.20;75.60;;;;;;4982537;28;43522;-71
2022/10/25 04:45:50;;;;;;;3.90;2.80;;;20.20;75.70;;;;;;4973258;28;43858;-71
2022/10/25 04:48:18;;;;;;;4.33;2.67;;;20.10;76.00;;;;;;4972581;28;45028;-70
2022/10/25 04:50:46;;;;;;;4.47;3.20;;;20.20;76.00;;;;;;4993025;28;43519;-70
2022/10/25 04:53:15;;;;;;;3.17;2.50;;;20.30;75.60;;;;;;4981431;28;44069;-71
2022/10/25 04:55:43;;;;;;;3.37;2.73;;;20.40;75.00;;;;;;4972711;28;46140;-71
2022/10/25 04:58:11;;;;;;;3.10;2.50;;;20.60;74.60;;;;;;4971328;28;43499;-71
2022/10/25 05:00:39;;;;;;;2.63;2.40;;;20.60;74.30;;;;;;4982222;28;43482;-71
2022/10/25 05:03:33;;;;;;;2.70;2.50;;;20.60;74.30;;;;;;4980418;28;43896;-71
2022/10/25 05:06:19;;;;;;;3.20;2.60;;;20.50;74.50;;;;;;4988822;28;46013;-71
2022/10/25 05:08:49;;;;;;;3.00;2.30;;;20.40;74.70;;;;;;4979855;28;43385;-71
2022/10/25 05:11:19;;;;;;;2.60;2.40;;;20.30;75.30;;;;;;4974038;28;43497;-72
2022/10/25 05:14:09;;;;;;;2.80;2.60;;;20.30;75.20;;;;;;4977730;28;43542;-71
2022/10/25 05:17:16;;;;;;;2.43;2.33;;;20.30;75.20;;;;;;4976751;28;43990;-71
2022/10/25 05:20:34;;;;;;;2.50;2.30;;;20.30;75.30;;;;;;4977877;28;44695;-70
2022/10/25 05:23:49;;;;;;;2.37;2.27;;;20.20;75.70;;;;;;4976456;28;43554;-70
2022/10/25 05:26:56;;;;;;;3.20;2.50;;;20.20;75.80;;;;;;4984025;28;43433;-71
2022/10/25 05:29:55;;;;;;;2.03;1.93;;;20.20;75.70;;;;;;4984817;28;45414;-71
2022/10/25 05:32:55;;;;;;;2.47;2.30;;;20.20;75.70;;;;;;4977496;28;43384;-71
2022/10/25 05:36:07;;;;;;;2.43;2.33;;;20.10;76.00;;;;;;4968168;28;43425;-72
2022/10/25 05:39:04;;;;;;;2.63;2.43;;;20.20;76.10;;;;;;4979268;28;43601;-71
2022/10/25 05:42:47;;;;;;;2.60;2.40;;;20.30;75.60;;;;;;4973604;28;43887;-73
2022/10/25 05:45:47;;;;;;;3.17;2.60;;;20.50;74.90;;;;;;4981576;28;44311;-71
2022/10/25 05:48:37;;;;;;;2.50;2.30;;;20.60;74.30;;;;;;4981229;28;43444;-71
2022/10/25 05:51:21;;;;;;;3.03;2.43;;;20.60;74.30;;;;;;4983629;28;43484;-71
2022/10/25 05:54:05;;;;;;;2.30;2.10;;;20.50;74.50;;;;;;4982164;28;43601;-72
2022/10/25 05:56:33;;;;;;;3.20;2.20;;;20.40;74.80;;;;;;4982377;28;43489;-70
2022/10/25 05:59:07;;;;;;;2.23;2.03;;;20.40;75.30;;;;;;4981447;28;43455;-72
2022/10/25 06:01:36;;;;;;;2.20;2.03;;;20.30;75.20;;;;;;4980501;28;44227;-71
2022/10/25 06:04:08;;;;;;;2.13;2.03;;;20.30;75.20;;;;;;4988930;28;44290;-71
2022/10/25 06:06:36;;;;;;;2.00;1.90;;;20.30;75.30;;;;;;4975346;28;44561;-72
2022/10/25 06:09:06;;;;;;;2.97;2.13;;;20.20;75.40;;;;;;4988554;28;43441;-70
2022/10/25 06:11:35;;;;;;;2.10;2.00;;;20.20;75.80;;;;;;4990558;28;43466;-71
2022/10/25 06:14:03;;;;;;;2.17;2.07;;;20.20;75.80;;;;;;4974353;28;43925;-72
2022/10/25 06:16:32;;;;;;;1.83;1.73;;;20.20;75.70;;;;;;4982250;28;43470;-72
2022/10/25 06:19:00;;;;;;;2.33;2.23;;;20.20;75.80;;;;;;4978557;28;43442;-70
2022/10/25 06:21:28;;;;;;;2.70;2.50;;;20.10;75.80;;;;;;4986643;28;43950;-71
2022/10/25 06:23:57;;;;;;;3.10;2.30;;;20.10;76.20;;;;;;4979961;28;44043;-70
2022/10/25 06:26:26;;;;;;;2.00;1.90;;;20.20;76.10;;;;;;4981052;28;43928;-71
2022/10/25 06:28:57;;;;;;;1.90;1.80;;;20.30;75.60;;;;;;4981352;28;43512;-70
2022/10/25 06:31:26;;;;;;;2.17;2.07;;;20.40;75.00;;;;;;4976343;28;43540;-72
2022/10/25 06:33:55;;;;;;;2.47;2.27;;;20.60;74.60;;;;;;4977827;28;43861;-73
2022/10/25 06:36:25;;;;;;;2.33;2.20;;;20.60;74.30;;;;;;4972523;28;43540;-72
2022/10/25 06:38:53;;;;;;;2.27;2.10;;;20.60;74.30;;;;;;4976741;28;43462;-71
2022/10/25 06:41:22;;;;;;;1.90;1.80;;;20.50;74.50;;;;;;4992555;28;43438;-71
2022/10/25 06:43:50;;;;;;;2.33;2.23;;;20.40;74.70;;;;;;4984157;28;43905;-70
2022/10/25 06:46:20;;;;;;;2.67;2.10;;;20.40;75.30;;;;;;4974276;28;43404;-70
2022/10/25 06:48:48;;;;;;;2.00;1.90;;;20.30;75.30;;;;;;4984061;28;43446;-71
2022/10/25 06:51:18;;;;;;;2.40;2.20;;;20.30;75.20;;;;;;4974495;28;44209;-71
2022/10/25 06:53:46;;;;;;;2.10;2.00;;;20.30;75.30;;;;;;4980176;28;43929;-72
2022/10/25 06:56:14;;;;;;;2.20;2.00;;;20.20;75.40;;;;;;4984827;28;44054;-72
2022/10/25 06:58:42;;;;;;;2.10;2.00;;;20.20;75.90;;;;;;4974104;28;43441;-72
2022/10/25 07:01:11;;;;;;;2.10;2.00;;;20.20;75.80;;;;;;4976576;28;43453;-72
2022/10/25 07:03:40;;;;;;;1.80;1.70;;;20.20;75.70;;;;;;4992681;28;43841;-73
2022/10/25 07:06:09;;;;;;;1.90;1.83;;;20.20;75.70;;;;;;4979791;28;44353;-71
2022/10/25 07:08:40;;;;;;;1.90;1.80;;;20.10;75.70;;;;;;4972021;28;43408;-71
2022/10/25 07:11:12;;;;;;;2.17;2.00;;;20.10;76.10;;;;;;4969134;28;43553;-73
2022/10/25 07:13:40;;;;;;;1.93;1.93;;;20.20;76.10;;;;;;4980269;28;43593;-72
2022/10/25 07:16:10;;;;;;;2.50;2.10;;;20.20;75.60;;;;;;4977140;28;43540;-72
2022/10/25 07:18:39;;;;;;;1.80;1.70;;;20.40;75.10;;;;;;4983990;28;43437;-71
2022/10/25 07:21:08;;;;;;;2.20;2.10;;;20.50;74.50;;;;;;4978249;28;43498;-72
2022/10/25 07:23:40;;;;;;;2.00;1.90;;;20.60;74.30;;;;;;4979838;28;43920;-70
2022/10/25 07:26:11;;;;;;;1.80;1.70;;;20.60;74.20;;;;;;4984854;28;43863;-71
2022/10/25 07:28:40;;;;;;;1.90;1.80;;;20.50;74.30;;;;;;4978828;28;43503;-71
2022/10/25 07:31:08;;;;;;;1.90;1.80;;;20.40;74.50;;;;;;4978561;28;43995;-70
2022/10/25 07:33:36;;;;;;;2.23;2.03;;;20.40;75.00;;;;;;4991308;28;43918;-71
2022/10/25 07:36:04;;;;;;;1.83;1.73;;;20.30;75.20;;;;;;4977693;28;44626;-71
2022/10/25 07:38:37;;;;;;;1.80;1.80;;;20.30;75.20;;;;;;4987559;28;43392;-70
2022/10/25 07:41:06;;;;;;;1.50;1.50;;;20.30;75.30;;;;;;4981565;28;43462;-72
2022/10/25 07:43:35;;;;;;;1.90;1.80;;;20.20;75.30;;;;;;4974546;28;43905;-71
2022/10/25 07:46:03;;;;;;;2.10;2.00;;;20.20;75.70;;;;;;4981140;28;45011;-70
2022/10/25 07:48:31;;;;;;;2.00;1.90;;;20.20;75.80;;;;;;4977679;28;43424;-71
2022/10/25 07:51:02;;;;;;;1.50;1.40;;;20.20;75.80;;;;;;4978080;28;43347;-70
2022/10/25 07:53:31;;;;;;;1.90;1.80;;;20.20;75.70;;;;;;4990692;28;44175;-71
2022/10/25 07:55:59;;;;;;;1.90;1.80;;;20.10;75.70;;;;;;4976750;28;43420;-70
2022/10/25 07:58:26;;;;;;;1.80;1.70;;;20.10;76.10;;;;;;4986628;28;43481;-73
2022/10/25 08:01:01;;;;;;;1.63;1.63;;;20.10;76.10;;;;;;4973688;28;43511;-70
2022/10/25 08:03:29;;;;;;;1.90;1.80;;;20.20;75.80;;;;;;4986269;28;43935;-71
2022/10/25 08:05:57;;;;;;;1.80;1.70;;;20.40;75.30;;;;;;4976429;28;44622;-71
2022/10/25 08:09:21;;;;;;;1.80;1.70;;;20.50;74.80;;;;;;4976635;28;43389;-71
2022/10/25 08:15:39;;;;;;;1.97;1.87;;;20.50;74.50;;;;;;4973755;28;43831;-73
2022/10/25 08:21:45;;;;;;;2.07;1.90;;;20.30;75.20;;;;;;4974566;28;43388;-71
2022/10/25 08:24:14;;;;;;;1.73;1.73;;;20.20;75.30;;;;;;4974530;28;43484;-71
2022/10/25 08:26:42;;;;;;;2.00;1.90;;;20.20;75.30;;;;;;4984533;28;44808;-71
2022/10/25 08:29:10;;;;;;;1.80;1.70;;;20.20;75.40;;;;;;4990237;28;43392;-73
2022/10/25 08:31:39;;;;;;;1.60;1.60;;;20.20;75.50;;;;;;4988690;28;43399;-71
2022/10/25 08:34:08;;;;;;;1.70;1.70;;;20.10;75.90;;;;;;4974481;28;43372;-71
2022/10/25 08:36:45;;;;;;;1.83;1.73;;;20.10;75.90;;;;;;4981054;28;43883;-71
2022/10/25 08:39:13;;;;;;;1.77;1.67;;;20.20;75.80;;;;;;4969987;28;43687;-71
2022/10/25 08:41:45;;;;;;;1.67;1.60;;;20.10;75.60;;;;;;4980333;28;43416;-72
2022/10/25 08:44:16;;;;;;;1.53;1.53;;;20.10;75.80;;;;;;4980284;28;43409;-70
2022/10/25 08:46:48;;;;;;;1.97;1.87;;;20.10;76.10;;;;;;4981982;28;43930;-72
2022/10/25 08:49:19;;;;;;;1.87;1.77;;;20.10;76.20;;;;;;4985830;28;43450;-72
2022/10/25 08:51:49;;;;;;;1.97;1.87;;;20.20;75.90;;;;;;4983118;28;43511;-72
2022/10/25 08:54:26;;;;;;;1.53;1.53;;;20.30;75.40;;;;;;4985813;28;43494;-72
2022/10/25 08:57:02;;;;;;;1.90;1.80;;;20.50;74.90;;;;;;4977063;28;43655;-71
2022/10/25 09:00:06;;;;;;;1.73;1.70;;;20.50;74.40;;;;;;4972347;28;43769;-71
2022/10/25 09:02:37;;;;;;;1.73;1.63;;;20.60;74.40;;;;;;4980788;28;43423;-71
2022/10/25 09:05:13;;;;;;;1.47;1.37;;;20.40;74.40;;;;;;4980239;28;43460;-72
2022/10/25 09:08:00;;;;;;;1.50;1.50;;;20.40;74.80;;;;;;4977171;28;43883;-71
2022/10/25 09:10:43;;;;;;;1.60;1.60;;;20.30;75.30;;;;;;4973710;28;44996;-72
2022/10/25 09:13:15;;;;;;;1.50;1.50;;;20.30;75.30;;;;;;4976562;28;43353;-71
2022/10/25 09:15:51;;;;;;;1.60;1.50;;;20.20;75.20;;;;;;4986118;28;43369;-72
2022/10/25 09:18:19;;;;;;;1.43;1.43;;;20.20;75.40;;;;;;4975694;28;43613;-71
2022/10/25 09:20:50;;;;;;;1.67;1.67;;;20.10;75.50;;;;;;4980349;28;43961;-70
2022/10/25 09:23:26;;;;;;;1.30;1.30;;;20.10;75.90;;;;;;4988694;28;43495;-69
2022/10/25 09:26:01;;;;;;;1.40;1.40;;;20.10;75.90;;;;;;4984633;28;43907;-71
2022/10/25 09:28:35;;;;;;;1.50;1.50;;;20.10;75.70;;;;;;4977372;28;43915;-72
2022/10/25 09:31:03;;;;;;;1.40;1.40;;;20.10;75.80;;;;;;4982087;28;43953;-73
2022/10/25 09:33:31;;;;;;;1.60;1.60;;;20.00;75.90;;;;;;4983686;28;43410;-71
2022/10/25 09:36:01;;;;;;;1.57;1.57;;;20.00;76.30;;;;;;4974936;28;43392;-70
2022/10/25 09:38:34;;;;;;;1.40;1.40;;;20.10;76.10;;;;;;4985488;28;43569;-71
2022/10/25 09:41:03;;;;;;;1.57;1.57;;;20.20;75.70;;;;;;4977939;28;43410;-72
2022/10/25 09:43:40;;;;;;;1.30;1.30;;;20.30;75.20;;;;;;4970153;28;43447;-72
2022/10/25 09:46:11;;;;;;;1.30;1.30;;;20.30;75.00;;;;;;4985967;28;43475;-71
2022/10/25 09:48:45;;;;;;;1.23;1.23;;;20.30;74.90;;;;;;4974640;28;43615;-71
2022/10/25 09:51:15;;;;;;;1.37;1.37;;;20.30;75.40;;;;;;4974362;28;43884;-72
2022/10/25 09:53:43;;;;;;;1.77;1.67;;;20.30;75.30;;;;;;4973207;28;43457;-70
2022/10/25 09:56:16;;;;;;;1.30;1.30;;;20.30;75.20;;;;;;4971879;28;43805;-72
2022/10/25 09:58:48;;;;;;;1.30;1.30;;;20.20;75.20;;;;;;4973736;28;45647;-71
2022/10/25 10:01:23;;;;;;;1.43;1.43;;;20.20;75.40;;;;;;4986190;28;43587;-71
2022/10/25 10:03:54;;;;;;;1.40;1.37;;;20.10;75.80;;;;;;4984056;28;43381;-72
2022/10/25 10:06:36;;;;;;;1.60;1.60;;;20.10;75.80;;;;;;4988166;28;43487;-71
2022/10/25 10:09:07;;;;;;;1.40;1.40;;;20.10;75.70;;;;;;4980639;28;45680;-71
2022/10/25 10:11:35;;;;;;;1.20;1.20;;;20.10;75.70;;;;;;4985700;28;45122;-71
2022/10/25 10:14:06;;;;;;;1.70;1.60;;;20.10;75.80;;;;;;4979070;28;43414;-71
2022/10/25 10:16:45;;;;;;;1.50;1.50;;;20.00;76.20;;;;;;4986994;28;43506;-71
2022/10/25 10:19:17;;;;;;;1.40;1.40;;;20.00;76.20;;;;;;4985006;28;45643;-71
2022/10/25 10:21:47;;;;;;;1.30;1.30;;;20.00;75.90;;;;;;4974166;28;43816;-70
2022/10/25 10:24:19;;;;;;;1.60;1.60;;;20.00;75.90;;;;;;4976037;28;44168;-72
2022/10/25 10:26:55;;;;;;;1.30;1.30;;;20.00;76.00;;;;;;4987680;28;43631;-71
2022/10/25 10:29:28;;;;;;;1.30;1.30;;;20.00;76.40;;;;;;4976101;28;43908;-72
2022/10/25 10:31:58;;;;;;;1.40;1.40;;;20.00;76.30;;;;;;4990038;28;43914;-71
2022/10/25 10:34:28;;;;;;;1.50;1.50;;;20.10;75.90;;;;;;4984082;28;44349;-71
2022/10/25 10:37:20;;;;;;;1.70;1.60;;;20.30;75.40;;;;;;4980939;28;43896;-70
2022/10/25 10:39:51;;;;;;;1.40;1.40;;;20.50;74.70;;;;;;4970631;28;43954;-71
2022/10/25 10:42:25;;;;;;;1.47;1.43;;;20.50;74.40;;;;;;4979081;28;45361;-72
2022/10/25 10:45:06;;;;;;;1.60;1.60;;;20.50;74.40;;;;;;4975222;28;43350;-71
2022/10/25 10:47:37;;;;;;;1.13;1.13;;;20.40;74.50;;;;;;4986632;28;43528;-72
2022/10/25 10:50:10;;;;;;;1.43;1.43;;;20.30;74.80;;;;;;4977749;28;45739;-72
2022/10/25 10:52:42;;;;;;;1.37;1.37;;;20.30;75.40;;;;;;4979108;28;43794;-71
2022/10/25 10:55:17;;;;;;;1.37;1.37;;;20.20;75.30;;;;;;4980478;28;44022;-72
2022/10/25 10:57:44;;;;;;;1.43;1.43;;;20.20;75.30;;;;;;4970904;28;43381;-71
2022/10/25 11:00:21;;;;;;;1.20;1.20;;;20.10;75.30;;;;;;4978337;28;45749;-70
2022/10/25 11:02:49;;;;;;;1.20;1.20;;;20.10;75.60;;;;;;4977630;28;43448;-71
2022/10/25 11:05:24;;;;;;;1.30;1.30;;;20.10;76.00;;;;;;4988220;28;43391;-71
2022/10/25 11:07:57;;;;;;;1.27;1.27;;;20.10;76.10;;;;;;4989900;28;43492;-72
2022/10/25 11:10:30;;;;;;;1.20;1.20;;;20.10;75.90;;;;;;4973767;28;43603;-71
2022/10/25 11:13:13;;;;;;;1.10;1.10;;;20.00;75.90;;;;;;4989281;28;44676;-70
2022/10/25 11:16:08;;;;;;;1.23;1.23;;;20.00;76.00;;;;;;4989711;28;43468;-71
2022/10/25 11:18:42;;;;;;;1.43;1.43;;;20.00;76.40;;;;;;4983311;28;43453;-71
2022/10/25 11:21:14;;;;;;;1.30;1.30;;;20.00;76.40;;;;;;4977822;28;43884;-71
2022/10/25 11:23:49;;;;;;;1.23;1.23;;;20.10;76.00;;;;;;4988553;28;43368;-71
2022/10/25 11:26:20;;;;;;;1.20;1.20;;;20.20;75.50;;;;;;4981976;28;43951;-72
2022/10/25 11:28:51;;;;;;;1.20;1.20;;;20.40;75.00;;;;;;4985915;28;43624;-71
2022/10/25 11:31:21;;;;;;;1.13;1.13;;;20.40;74.60;;;;;;4990765;28;43861;-71
2022/10/25 11:33:56;;;;;;;1.20;1.20;;;20.40;74.60;;;;;;4971347;28;44833;-71
2022/10/25 11:36:33;;;;;;;1.30;1.30;;;20.40;74.90;;;;;;4975395;28;43496;-72
2022/10/25 11:39:13;;;;;;;1.33;1.33;;;20.30;75.10;;;;;;4978284;28;43651;-71
2022/10/25 11:41:44;;;;;;;1.43;1.43;;;20.20;75.50;;;;;;4986262;28;43608;-70
2022/10/25 11:44:41;;;;;;;1.40;1.40;;;20.20;75.70;;;;;;4978093;28;44647;-70
2022/10/25 11:47:19;;;;;;;1.30;1.30;;;20.20;75.60;;;;;;4971351;28;43435;-71
2022/10/25 11:49:53;;;;;;;1.23;1.23;;;20.10;75.60;;;;;;4977136;28;43966;-71
2022/10/25 11:52:48;;;;;;;1.10;1.10;;;20.10;75.70;;;;;;4979538;28;45280;-71
2022/10/25 11:55:27;;;;;;;1.20;1.20;;;20.00;76.00;;;;;;4979614;28;43425;-71
2022/10/25 11:57:59;;;;;;;1.20;1.20;;;20.00;76.00;;;;;;4978108;28;43467;-71
2022/10/25 12:00:39;;;;;;;1.10;1.10;;;20.00;76.10;;;;;;4981182;28;43509;-71
2022/10/25 12:03:20;;;;;;;1.10;1.10;;;20.00;75.90;;;;;;4993353;28;45339;-71
2022/10/25 12:05:51;;;;;;;1.10;1.10;;;20.00;76.10;;;;;;4987952;28;43470;-71
2022/10/25 12:19:36;;;;;;;1.47;1.47;;;20.40;75.10;;;;;;4981137;28;43438;-72
2022/10/25 12:22:14;;;;;;;1.00;1.00;;;20.40;75.00;;;;;;4978575;28;43643;-70
2022/10/25 12:24:45;;;;;;;1.00;1.00;;;20.30;75.10;;;;;;4985128;28;43428;-70
2022/10/25 12:27:13;;;;;;;1.30;1.30;;;20.20;75.40;;;;;;4979294;28;43602;-71
2022/10/25 12:29:42;;;;;;;1.40;1.40;;;20.20;75.80;;;;;;4971694;28;43481;-72
2022/10/25 12:32:13;;;;;;;1.10;1.10;;;20.20;75.80;;;;;;4978888;28;43500;-71
2022/10/25 12:34:43;;;;;;;1.10;1.10;;;20.20;76.00;;;;;;4986761;28;43421;-70
2022/10/25 12:37:13;;;;;;;1.10;1.10;;;20.10;75.90;;;;;;4979206;28;43680;-71
2022/10/25 12:39:42;;;;;;;1.47;1.47;;;20.10;76.10;;;;;;4980019;28;43441;-72
2022/10/25 12:42:15;;;;;;;1.20;1.20;;;20.00;76.20;;;;;;4974715;28;44006;-72
2022/10/25 12:45:00;;;;;;;1.27;1.27;;;20.00;76.40;;;;;;4978180;28;43496;-71
2022/10/25 12:47:43;;;;;;;1.10;1.10;;;20.10;76.20;;;;;;4986862;28;45400;-72
2022/10/25 12:50:38;;;;;;;1.30;1.30;;;20.20;75.60;;;;;;4982497;28;43483;-71
2022/10/25 12:53:42;;;;;;;1.07;1.07;;;20.20;75.40;;;;;;4954299;28;43579;-70
2022/10/25 12:56:16;;;;;;;1.00;1.00;;;20.20;75.60;;;;;;4972248;28;43577;-71
2022/10/25 12:58:53;;;;;;;1.20;1.20;;;20.20;75.60;;;;;;4982691;28;43949;-70
2022/10/25 13:01:29;;;;;;;1.10;1.10;;;20.20;75.80;;;;;;4975139;28;44361;-70
2022/10/25 13:04:38;;;;;;;1.10;1.10;;;20.20;75.90;;;;;;4983201;28;43427;-71
2022/10/25 13:07:06;;;;;;;1.20;1.20;;;20.20;76.10;;;;;;4986968;28;44081;-71
2022/10/25 13:09:45;;;;;;;1.10;1.10;;;20.10;76.10;;;;;;4986282;28;45471;-72
2022/10/25 13:12:29;;;;;;;1.40;1.40;;;20.10;76.10;;;;;;4980208;28;43373;-70
2022/10/25 13:14:57;;;;;;;1.10;1.10;;;20.10;76.10;;;;;;4983298;28;43360;-71
2022/10/25 13:18:02;;;;;;;1.07;1.07;;;20.10;76.20;;;;;;4976118;28;43495;-71
2022/10/25 13:20:50;;;;;;;1.30;1.30;;;20.00;76.20;;;;;;4969631;28;46133;-73
2022/10/25 13:23:48;;;;;;;1.20;1.20;;;20.00;76.50;;;;;;4991157;28;43444;-71
2022/10/25 13:26:17;;;;;;;1.20;1.20;;;20.10;76.20;;;;;;4987317;28;43375;-72
2022/10/25 13:28:46;;;;;;;1.20;1.20;;;20.20;75.80;;;;;;4981999;28;44000;-71
2022/10/25 13:31:53;;;;;;;1.20;1.20;;;20.20;75.60;;;;;;4978792;28;45303;-71
2022/10/25 13:34:28;;;;;;;1.07;1.07;;;20.20;75.60;;;;;;4984132;28;43535;-72
2022/10/25 13:36:58;;;;;;;1.00;1.00;;;20.20;75.80;;;;;;4977939;28;43695;-70
2022/10/25 13:39:28;;;;;;;1.27;1.27;;;20.20;75.70;;;;;;4977948;28;43585;-71